Summerfield, Louisiana
Current Conditions -  °F | °C
As of 9:53 AM on Sunday 25 Jan 2015 (Local Time) from KELD Reporting Station
Clear Clear  
Wind Chill: 51°   Ceiling: Unl
Heat Index: 51°   Visibility: 10mi
Dew Point: 38°   Wind: 10mph
Humidity: 61%   Direction: 270°W
Pressure: 29.87"   Gusts: NA
Location:  32.91°N, 92.83°W
Report Text: KELD 251553Z AUTO 27009KT 10SM CLR 11/03 A2987 RMK AO2 SLP113 T01060033
Loading
Personal Weather Stations






























Interactive Weather Map New forecast layout! Learn more

10-Day Weather Forecast

Advertisements
Track Severe Weather on mobile